createdAt,value
2018-07-28T00:00:01.902Z,54.44
2018-07-28T00:01:01.894Z,54.34
2018-07-28T00:02:01.883Z,54.24
2018-07-28T00:03:01.872Z,54.05
2018-07-28T00:04:01.868Z,54.14
2018-07-28T00:05:01.856Z,54.44
2018-07-28T00:06:01.851Z,54.14
2018-07-28T00:07:01.835Z,54.53
2018-07-28T00:08:01.825Z,54.53
2018-07-28T00:09:01.821Z,54.82
2018-07-28T00:10:01.804Z,54.53
2018-07-28T00:11:01.792Z,54.44
2018-07-28T00:12:01.784Z,54.63
2018-07-28T00:13:01.773Z,54.63
2018-07-28T00:14:01.763Z,54.63
2018-07-28T00:15:01.753Z,54.63
2018-07-28T00:16:01.747Z,54.53
2018-07-28T00:17:01.735Z,54.63
2018-07-28T00:18:01.734Z,54.63
2018-07-28T00:19:01.721Z,54.92
2018-07-28T00:20:01.707Z,54.82
2018-07-28T00:21:01.699Z,54.82
2018-07-28T00:22:01.692Z,55.21
2018-07-28T00:23:01.674Z,54.82
2018-07-28T00:24:01.664Z,55.08
2018-07-28T00:25:01.654Z,55.21
2018-07-28T00:26:01.645Z,55.28
2018-07-28T00:27:01.637Z,55.87
2018-07-28T00:28:01.624Z,55.47
2018-07-28T00:29:01.617Z,55.47
2018-07-28T00:30:01.606Z,55.77
2018-07-28T00:31:01.596Z,55.67
2018-07-28T00:32:01.586Z,56.05
2018-07-28T00:33:01.575Z,55.57
2018-07-28T00:34:01.564Z,55.96
2018-07-28T00:35:01.555Z,55.67
2018-07-28T00:36:01.545Z,55.57
2018-07-28T00:37:01.535Z,55.96
2018-07-28T00:38:01.534Z,55.67
2018-07-28T00:39:01.545Z,56.25
2018-07-28T00:40:01.506Z,56.15
2018-07-28T00:41:01.497Z,55.87
2018-07-28T00:42:01.485Z,56.25
2018-07-28T00:43:01.480Z,56.64
2018-07-28T00:44:01.466Z,55.87
2018-07-28T00:45:01.464Z,56.64
2018-07-28T00:46:01.446Z,56.15
2018-07-28T00:47:01.442Z,55.96
2018-07-28T00:48:01.426Z,56.64
2018-07-28T00:49:01.417Z,56.51
2018-07-28T00:50:01.414Z,56.32
2018-07-28T00:51:01.396Z,56.61
2018-07-28T00:52:01.394Z,56.81
2018-07-28T00:53:01.382Z,56.71
2018-07-28T00:54:01.366Z,57.09
2018-07-28T00:55:01.357Z,57.00
2018-07-28T00:56:01.346Z,57.00
2018-07-28T00:57:01.338Z,57.09
2018-07-28T00:58:01.334Z,56.90
2018-07-28T00:59:01.315Z,57.78
2018-07-28T01:00:01.309Z,57.48
2018-07-28T01:01:01.296Z,57.29
2018-07-28T01:02:01.286Z,57.48
2018-07-28T01:03:01.277Z,57.29
2018-07-28T01:04:01.264Z,57.39
2018-07-28T01:05:01.261Z,57.58
2018-07-28T01:06:01.246Z,57.58
2018-07-28T01:07:01.235Z,57.97
2018-07-28T01:08:01.244Z,57.94
2018-07-28T01:09:01.216Z,57.97
2018-07-28T01:10:01.222Z,57.78
2018-07-28T01:11:01.196Z,58.26
2018-07-28T01:12:01.184Z,58.55
2018-07-28T01:13:01.184Z,58.55
2018-07-28T01:14:01.165Z,58.45
2018-07-28T01:15:01.152Z,58.23
2018-07-28T01:16:01.152Z,58.26
2018-07-28T01:17:01.136Z,58.23
2018-07-28T01:18:01.120Z,58.26
2018-07-28T01:19:01.112Z,58.23
2018-07-28T01:20:01.101Z,58.23
2018-07-28T01:21:01.093Z,58.62
2018-07-28T01:22:01.082Z,58.42
2018-07-28T01:23:01.070Z,58.45
2018-07-28T01:24:01.061Z,58.42
2018-07-28T01:25:01.061Z,58.81
2018-07-28T01:26:01.039Z,58.52
2018-07-28T01:27:01.028Z,59.10
2018-07-28T01:28:01.027Z,59.20
2018-07-28T01:29:01.015Z,59.10
2018-07-28T01:30:00.998Z,59.20
2018-07-28T01:31:00.989Z,59.20
2018-07-28T01:32:00.979Z,59.10
2018-07-28T01:33:00.968Z,58.91
2018-07-28T01:34:00.956Z,59.00
2018-07-28T01:35:00.948Z,59.30
2018-07-28T01:36:00.937Z,59.20
2018-07-28T01:37:00.926Z,59.10
2018-07-28T01:38:00.917Z,59.30
2018-07-28T01:39:00.906Z,59.10
2018-07-28T01:40:00.896Z,59.30
2018-07-28T01:41:00.887Z,59.49
2018-07-28T01:42:00.894Z,59.59
2018-07-28T01:43:00.864Z,59.39
2018-07-28T01:44:00.851Z,59.30
2018-07-28T01:45:00.845Z,59.39
2018-07-28T01:46:00.832Z,59.20
2018-07-28T01:47:00.831Z,59.39
2018-07-28T01:48:00.811Z,59.39
2018-07-28T01:49:00.802Z,59.30
2018-07-28T01:50:00.790Z,59.88
2018-07-28T01:51:00.782Z,59.00
2018-07-28T01:52:00.769Z,59.78
2018-07-28T01:53:00.760Z,59.20
2018-07-28T01:54:00.748Z,59.69
2018-07-28T01:55:00.740Z,59.78
2018-07-28T01:56:00.729Z,59.69
2018-07-28T01:57:00.719Z,59.56
2018-07-28T01:58:00.712Z,59.66
2018-07-28T01:59:00.696Z,60.24
2018-07-28T02:00:00.688Z,60.07
2018-07-28T02:01:00.680Z,59.84
2018-07-28T02:02:00.667Z,60.17
2018-07-28T02:03:00.857Z,59.66
2018-07-28T02:04:00.647Z,60.14
2018-07-28T02:05:00.635Z,59.84
2018-07-28T02:06:00.624Z,59.94
2018-07-28T02:07:00.613Z,60.43
2018-07-28T02:08:00.604Z,60.62
2018-07-28T02:09:00.591Z,60.43
2018-07-28T02:10:00.586Z,60.52
2018-07-28T02:11:00.570Z,60.04
2018-07-28T02:12:00.560Z,60.24
2018-07-28T02:13:00.549Z,60.14
2018-07-28T02:14:00.536Z,60.52
2018-07-28T02:15:00.530Z,60.33
2018-07-28T02:16:00.517Z,60.14
2018-07-28T02:17:00.514Z,61.11
2018-07-28T02:18:00.494Z,60.82
2018-07-28T02:19:00.485Z,61.11
2018-07-28T02:20:00.474Z,60.62
2018-07-28T02:21:00.464Z,60.72
2018-07-28T02:22:00.453Z,61.21
2018-07-28T02:23:00.442Z,61.21
2018-07-28T02:24:00.432Z,61.40
2018-07-28T02:25:00.421Z,61.21
2018-07-28T02:26:00.415Z,61.18
2018-07-28T02:27:00.400Z,61.95
2018-07-28T02:28:00.391Z,61.76
2018-07-28T02:29:00.378Z,61.79
2018-07-28T02:30:00.376Z,61.36
2018-07-28T02:31:00.359Z,61.88
2018-07-28T02:32:00.349Z,61.88
2018-07-28T02:33:00.336Z,61.49
2018-07-28T02:34:00.328Z,61.40
2018-07-28T02:35:00.317Z,62.14
2018-07-28T02:36:00.312Z,62.14
2018-07-28T02:37:00.294Z,62.14
2018-07-28T02:38:00.282Z,62.24
2018-07-28T02:39:00.272Z,62.63
2018-07-28T02:40:00.261Z,62.63
2018-07-28T02:41:00.251Z,62.34
2018-07-28T02:42:00.240Z,62.34
2018-07-28T02:43:00.231Z,62.24
2018-07-28T02:44:00.219Z,62.72
2018-07-28T02:45:00.219Z,62.63
2018-07-28T02:46:00.198Z,62.43
2018-07-28T02:47:00.187Z,63.11
2018-07-28T02:48:00.183Z,62.79
2018-07-28T02:49:00.166Z,63.21
2018-07-28T02:50:00.154Z,62.92
2018-07-28T02:51:00.146Z,62.88
2018-07-28T02:52:00.134Z,63.37
2018-07-28T02:53:00.123Z,63.46
2018-07-28T02:54:00.117Z,63.27
2018-07-28T02:55:00.102Z,63.40
2018-07-28T02:56:00.090Z,63.37
2018-07-28T02:57:00.080Z,63.85
2018-07-28T02:58:00.080Z,63.95
2018-07-28T02:59:00.062Z,63.66
2018-07-28T03:00:00.063Z,64.53
2018-07-28T03:01:00.039Z,64.53
2018-07-28T03:02:00.025Z,64.34
2018-07-28T03:03:00.025Z,64.43
2018-07-28T03:04:00.007Z,64.24
2018-07-28T03:04:59.997Z,64.53
2018-07-28T03:05:59.991Z,63.95
2018-07-28T03:06:59.971Z,63.95
2018-07-28T03:07:59.966Z,64.14
2018-07-28T03:08:59.951Z,64.24
2018-07-28T03:09:59.940Z,64.14
2018-07-28T03:10:59.926Z,64.34
2018-07-28T03:11:59.916Z,64.72
2018-07-28T03:12:59.903Z,64.53
2018-07-28T03:13:59.893Z,64.43
2018-07-28T03:14:59.881Z,64.24
2018-07-28T03:15:59.872Z,64.43
2018-07-28T03:16:59.861Z,64.62
2018-07-28T03:17:59.852Z,64.82
2018-07-28T03:18:59.838Z,64.92
2018-07-28T03:19:59.827Z,64.82
2018-07-28T03:20:59.817Z,64.72
2018-07-28T03:21:59.804Z,65.11
2018-07-28T03:22:59.794Z,65.40
2018-07-28T03:23:59.785Z,65.01
2018-07-28T03:24:59.771Z,65.40
2018-07-28T03:25:59.761Z,64.92
2018-07-28T03:26:59.758Z,65.30
2018-07-28T03:27:59.738Z,65.40
2018-07-28T03:28:59.728Z,64.92
2018-07-28T03:29:59.717Z,65.01
2018-07-28T03:30:59.710Z,64.72
2018-07-28T03:31:59.695Z,65.69
2018-07-28T03:32:59.683Z,65.30
2018-07-28T03:33:59.672Z,65.01
2018-07-28T03:34:59.671Z,65.56
2018-07-28T03:35:59.659Z,65.75
2018-07-28T03:36:59.641Z,65.95
2018-07-28T03:37:59.628Z,66.05
2018-07-28T03:38:59.616Z,66.05
2018-07-28T03:39:59.614Z,66.05
2018-07-28T03:40:59.602Z,65.75
2018-07-28T03:41:59.585Z,65.95
2018-07-28T03:42:59.572Z,66.05
2018-07-28T03:43:59.569Z,65.85
2018-07-28T03:44:59.551Z,66.33
2018-07-28T03:45:59.541Z,66.24
2018-07-28T03:46:59.527Z,66.63
2018-07-28T03:47:59.517Z,66.63
2018-07-28T03:48:59.514Z,67.40
2018-07-28T03:49:59.494Z,66.72
2018-07-28T03:50:59.535Z,66.53
2018-07-28T03:51:59.475Z,66.72
2018-07-28T03:52:59.462Z,66.53
2018-07-28T03:53:59.453Z,66.63
2018-07-28T03:54:59.447Z,66.53
2018-07-28T03:55:59.428Z,66.43
2018-07-28T03:56:59.418Z,66.63
2018-07-28T03:57:59.406Z,66.82
2018-07-28T03:58:59.396Z,67.40
2018-07-28T03:59:59.384Z,67.49
2018-07-28T04:00:59.372Z,67.30
2018-07-28T04:01:59.361Z,67.40
2018-07-28T04:02:59.350Z,67.21
2018-07-28T04:03:59.344Z,67.40
2018-07-28T04:04:59.328Z,67.46
2018-07-28T04:05:59.327Z,67.40
2018-07-28T04:06:59.315Z,67.98
2018-07-28T04:07:59.296Z,67.75
2018-07-28T04:08:59.284Z,67.46
2018-07-28T04:09:59.272Z,68.04
2018-07-28T04:10:59.260Z,67.94
2018-07-28T04:11:59.251Z,68.24
2018-07-28T04:12:59.239Z,68.24
2018-07-28T04:13:59.227Z,68.14
2018-07-28T04:14:59.220Z,68.91
2018-07-28T04:15:59.206Z,69.01
2018-07-28T04:16:59.195Z,68.72
2018-07-28T04:17:59.183Z,68.14
2018-07-28T04:18:59.172Z,68.62
2018-07-28T04:19:59.162Z,68.33
2018-07-28T04:20:59.150Z,68.82
2018-07-28T04:21:59.144Z,68.72
2018-07-28T04:22:59.127Z,68.82
2018-07-28T04:23:59.115Z,68.37
2018-07-28T04:24:59.104Z,68.37
2018-07-28T04:25:59.093Z,67.79
2018-07-28T04:26:59.082Z,67.98
2018-07-28T04:27:59.073Z,67.79
2018-07-28T04:28:59.061Z,67.79
2018-07-28T04:29:59.051Z,68.17
2018-07-28T04:30:59.045Z,67.79
2018-07-28T04:31:59.027Z,67.98
2018-07-28T04:32:59.015Z,67.79
2018-07-28T04:33:59.004Z,67.88
2018-07-28T04:34:58.995Z,67.79
2018-07-28T04:35:58.980Z,67.88
2018-07-28T04:36:59.015Z,67.30
2018-07-28T04:37:58.958Z,67.69
2018-07-28T04:38:58.948Z,67.30
2018-07-28T04:39:58.939Z,67.40
2018-07-28T04:40:58.926Z,67.98
2018-07-28T04:41:58.913Z,67.49
2018-07-28T04:42:58.903Z,67.43
2018-07-28T04:43:58.909Z,67.30
2018-07-28T04:44:58.881Z,67.21
2018-07-28T04:45:58.868Z,67.79
2018-07-28T04:46:58.910Z,67.98
2018-07-28T04:47:58.850Z,67.79
2018-07-28T04:48:58.836Z,68.27
2018-07-28T04:49:58.829Z,67.69
2018-07-28T04:50:58.814Z,68.27
2018-07-28T04:51:58.804Z,67.88
2018-07-28T04:52:58.793Z,67.88
2018-07-28T04:53:58.783Z,67.79
2018-07-28T04:54:58.769Z,67.40
2018-07-28T04:55:58.763Z,67.14
2018-07-28T04:56:58.750Z,67.91
2018-07-28T04:57:58.737Z,67.14
2018-07-28T04:58:58.725Z,67.43
2018-07-28T04:59:58.715Z,67.24
2018-07-28T05:00:58.705Z,66.56
2018-07-28T05:01:58.692Z,66.66
2018-07-28T05:02:58.687Z,66.56
2018-07-28T05:03:58.673Z,67.53
2018-07-28T05:04:58.660Z,67.33
2018-07-28T05:05:58.648Z,67.24
2018-07-28T05:06:58.639Z,66.47
2018-07-28T05:07:58.632Z,66.66
2018-07-28T05:08:58.619Z,67.33
2018-07-28T05:09:58.606Z,67.24
2018-07-28T05:10:58.595Z,67.33
2018-07-28T05:11:58.584Z,66.95
2018-07-28T05:12:58.574Z,67.49
2018-07-28T05:13:58.563Z,67.14
2018-07-28T05:14:58.552Z,66.95
2018-07-28T05:15:58.596Z,66.75
2018-07-28T05:16:58.532Z,66.47
2018-07-28T05:17:58.518Z,67.40
2018-07-28T05:18:58.506Z,67.49
2018-07-28T05:19:58.496Z,67.88
2018-07-28T05:20:58.488Z,67.59
2018-07-28T05:21:58.475Z,67.59
2018-07-28T05:22:58.463Z,67.69
2018-07-28T05:23:58.454Z,67.43
2018-07-28T05:24:58.448Z,66.66
2018-07-28T05:25:58.432Z,66.43
2018-07-28T05:26:58.422Z,66.95
2018-07-28T05:27:58.436Z,67.40
2018-07-28T05:28:58.398Z,67.49
2018-07-28T05:29:58.386Z,67.79
2018-07-28T05:30:58.374Z,67.88
2018-07-28T05:31:58.367Z,67.11
2018-07-28T05:32:58.355Z,67.30
2018-07-28T05:33:58.345Z,67.30
2018-07-28T05:34:58.334Z,67.49
2018-07-28T05:35:58.326Z,68.37
2018-07-28T05:36:58.324Z,68.43
2018-07-28T05:37:58.300Z,69.10
2018-07-28T05:38:58.328Z,68.82
2018-07-28T05:39:58.279Z,68.17
2018-07-28T05:40:58.268Z,68.56
2018-07-28T05:41:58.255Z,68.37
2018-07-28T05:42:58.345Z,67.98
2018-07-28T05:43:58.240Z,68.17
2018-07-28T05:44:58.226Z,68.46
2018-07-28T05:45:58.210Z,68.17
2018-07-28T05:46:58.200Z,67.91
2018-07-28T05:47:58.192Z,67.43
2018-07-28T05:48:58.194Z,67.53
2018-07-28T05:49:58.211Z,67.43
2018-07-28T05:50:58.158Z,66.85
2018-07-28T05:51:58.147Z,66.85
2018-07-28T05:52:58.134Z,66.14
2018-07-28T05:53:58.123Z,62.52
2018-07-28T05:54:58.121Z,60.28
2018-07-28T05:55:58.103Z,57.92
2018-07-28T05:56:58.093Z,55.83
2018-07-28T05:57:58.089Z,54.30
2018-07-28T05:58:58.089Z,53.26
2018-07-28T05:59:58.070Z,53.16
2018-07-28T06:00:58.054Z,52.50
2018-07-28T06:01:58.046Z,50.97
2018-07-28T06:02:58.034Z,50.21
2018-07-28T06:03:58.026Z,49.56
2018-07-28T06:04:58.017Z,49.37
2018-07-28T06:05:58.007Z,48.22
2018-07-28T06:06:58.000Z,47.95
2018-07-28T06:07:57.998Z,47.63
2018-07-28T06:08:57.986Z,48.29
2018-07-28T06:09:57.979Z,48.32
2018-07-28T06:10:57.984Z,48.58
2018-07-28T06:11:57.964Z,48.12
2018-07-28T06:12:58.008Z,48.10
2018-07-28T06:13:57.954Z,48.58
2018-07-28T06:14:57.944Z,48.19
2018-07-28T06:15:57.938Z,47.75
2018-07-28T06:16:57.932Z,46.70
2018-07-28T06:17:57.926Z,45.75
2018-07-28T06:18:57.921Z,44.32
2018-07-28T06:20:41.951Z,42.85
2018-07-28T06:21:41.943Z,43.15
2018-07-28T06:22:41.943Z,43.91
2018-07-28T06:23:42.089Z,43.73
2018-07-28T06:24:41.932Z,44.03
2018-07-28T06:25:41.929Z,43.15
2018-07-28T06:26:41.925Z,43.15
2018-07-28T06:27:41.919Z,43.40
2018-07-28T06:28:42.931Z,45.31
2018-07-28T06:29:41.913Z,46.46
2018-07-28T06:30:41.910Z,47.71
2018-07-28T06:31:41.988Z,48.00
2018-07-28T06:32:41.903Z,46.68
2018-07-28T06:33:41.899Z,46.66
2018-07-28T06:34:41.900Z,46.58
2018-07-28T06:35:41.895Z,46.58
2018-07-28T06:36:41.900Z,46.26
2018-07-28T06:37:41.888Z,46.75
2018-07-28T06:38:41.889Z,46.56
2018-07-28T06:39:41.884Z,46.07
2018-07-28T06:40:41.881Z,47.12
2018-07-28T06:41:41.880Z,48.24
2018-07-28T06:42:41.890Z,49.05
2018-07-28T06:43:41.874Z,48.85
2018-07-28T06:44:41.873Z,49.27
2018-07-28T06:46:25.704Z,51.36
2018-07-28T06:47:25.709Z,52.14
2018-07-28T06:49:09.786Z,50.73
2018-07-28T06:50:09.793Z,50.65
2018-07-28T06:51:09.779Z,50.07
2018-07-28T06:52:09.778Z,49.80
2018-07-28T06:53:09.784Z,49.49
2018-07-28T06:54:09.776Z,49.68
2018-07-28T06:55:09.773Z,49.32
2018-07-28T06:56:09.783Z,47.97
2018-07-28T06:57:09.771Z,48.24
2018-07-28T06:58:09.773Z,48.14
2018-07-28T06:59:09.768Z,49.58
2018-07-28T07:00:09.791Z,50.51
2018-07-28T07:01:09.766Z,50.70
2018-07-28T07:02:09.768Z,51.07
2018-07-28T07:03:09.764Z,51.94
2018-07-28T07:04:09.761Z,51.67
2018-07-28T07:05:09.761Z,52.23
2018-07-28T07:06:09.760Z,51.55
2018-07-28T07:07:09.760Z,50.90
2018-07-28T07:08:09.766Z,50.80
2018-07-28T07:09:09.759Z,51.67
2018-07-28T07:10:09.766Z,52.53
2018-07-28T07:11:43.032Z,51.67
2018-07-28T07:12:09.753Z,51.48
2018-07-28T07:13:09.756Z,52.23
2018-07-28T07:14:09.756Z,53.40
2018-07-28T07:15:09.756Z,53.20
2018-07-28T07:16:09.755Z,52.92
2018-07-28T07:17:09.760Z,53.38
2018-07-28T07:18:09.742Z,53.69
2018-07-28T07:19:09.741Z,53.11
2018-07-28T07:20:09.738Z,53.20
2018-07-28T07:21:09.736Z,53.50
2018-07-28T07:22:09.735Z,53.69
2018-07-28T07:23:09.730Z,53.69
2018-07-28T07:24:09.725Z,53.04
2018-07-28T07:25:09.732Z,52.75
2018-07-28T07:26:09.722Z,53.01
2018-07-28T07:27:09.778Z,54.08
2018-07-28T07:28:09.715Z,54.54
2018-07-28T07:29:09.720Z,54.61
2018-07-28T07:30:09.706Z,55.65
2018-07-28T07:31:09.705Z,55.68
2018-07-28T07:32:09.708Z,56.14
2018-07-28T07:33:09.696Z,55.85
2018-07-28T07:34:09.695Z,55.98
2018-07-28T07:35:09.686Z,55.58
2018-07-28T07:36:09.706Z,55.29
2018-07-28T07:37:09.690Z,55.13
2018-07-28T07:38:09.678Z,55.03
2018-07-28T07:39:09.671Z,54.47
2018-07-28T07:40:09.675Z,54.74
2018-07-28T07:41:09.666Z,54.64
2018-07-28T07:42:09.662Z,55.22
2018-07-28T07:43:09.651Z,54.93
2018-07-28T07:44:09.649Z,54.93
2018-07-28T07:45:09.643Z,54.47
2018-07-28T07:46:09.650Z,54.74
2018-07-28T07:47:09.690Z,55.13
2018-07-28T07:48:09.629Z,55.15
2018-07-28T07:49:09.632Z,54.47
2018-07-28T07:50:09.627Z,53.33
2018-07-28T07:51:09.617Z,53.23
2018-07-28T07:52:09.611Z,54.08
2018-07-28T07:53:09.607Z,54.28
2018-07-28T07:54:09.605Z,54.76
2018-07-28T07:55:09.597Z,54.66
2018-07-28T07:56:09.600Z,54.96
2018-07-28T07:57:09.595Z,55.13
2018-07-28T07:58:09.592Z,55.74
2018-07-28T07:59:09.585Z,55.83
2018-07-28T08:00:09.579Z,55.74
2018-07-28T08:01:09.569Z,55.08
2018-07-28T08:02:09.565Z,55.08
2018-07-28T08:03:09.566Z,54.89
2018-07-28T08:04:09.558Z,55.64
2018-07-28T08:05:09.552Z,55.76
2018-07-28T08:06:09.546Z,55.37
2018-07-28T08:07:09.540Z,54.82
2018-07-28T08:08:09.536Z,54.36
2018-07-28T08:09:09.532Z,54.62
2018-07-28T08:10:09.527Z,54.40
2018-07-28T08:11:09.520Z,55.83
2018-07-28T08:12:09.525Z,56.32
2018-07-28T08:13:09.514Z,56.71
2018-07-28T08:14:09.519Z,57.26
2018-07-28T08:15:09.507Z,57.75
2018-07-28T08:16:09.509Z,57.95
2018-07-28T08:17:09.495Z,58.43
2018-07-28T08:18:09.497Z,57.85
2018-07-28T08:19:09.485Z,58.04
2018-07-28T08:20:09.489Z,57.97
2018-07-28T08:21:09.488Z,57.20
2018-07-28T08:22:09.480Z,56.93
2018-07-28T08:23:09.467Z,56.47
2018-07-28T08:24:09.463Z,56.18
2018-07-28T08:25:09.464Z,56.93
2018-07-28T08:26:09.666Z,58.26
2018-07-28T08:27:09.452Z,58.56
2018-07-28T08:28:09.444Z,58.26
2018-07-28T08:29:09.440Z,58.26
2018-07-28T08:30:09.435Z,58.26
2018-07-28T08:31:09.430Z,58.26
2018-07-28T08:32:09.427Z,59.14
2018-07-28T08:33:09.423Z,59.33
2018-07-28T08:34:09.423Z,60.08
2018-07-28T08:35:09.428Z,59.99
2018-07-28T08:36:09.405Z,60.28
2018-07-28T08:37:09.400Z,60.02
2018-07-28T08:38:09.396Z,59.33
2018-07-28T08:39:09.390Z,59.53
2018-07-28T08:40:09.393Z,59.63
2018-07-28T08:41:09.380Z,60.38
2018-07-28T08:42:09.373Z,60.77
2018-07-28T08:43:09.375Z,60.67
2018-07-28T08:44:09.366Z,60.28
2018-07-28T08:45:09.360Z,61.25
2018-07-28T08:46:09.355Z,61.35
2018-07-28T08:47:09.356Z,61.64
2018-07-28T08:48:09.342Z,61.64
2018-07-28T08:49:09.494Z,61.74
2018-07-28T08:50:09.382Z,61.71
2018-07-28T08:51:09.333Z,61.71
2018-07-28T08:52:09.319Z,61.71
2018-07-28T08:53:09.321Z,62.48
2018-07-28T08:54:09.307Z,62.29
2018-07-28T08:55:09.301Z,62.87
2018-07-28T08:56:09.303Z,62.48
2018-07-28T08:57:09.288Z,62.77
2018-07-28T08:58:09.284Z,63.26
2018-07-28T08:59:09.277Z,63.75
2018-07-28T09:00:09.272Z,64.62
2018-07-28T09:01:09.265Z,66.14
2018-07-28T09:02:09.260Z,67.70
2018-07-28T09:03:09.254Z,69.15
2018-07-28T09:04:09.255Z,69.93
2018-07-28T09:05:09.240Z,71.39
2018-07-28T09:06:09.233Z,71.78
2018-07-28T09:07:09.224Z,71.45
2018-07-28T09:08:09.225Z,72.03
2018-07-28T09:09:09.226Z,73.49
2018-07-28T09:10:09.205Z,73.10
2018-07-28T09:11:09.196Z,74.23
2018-07-28T09:12:09.190Z,74.23
2018-07-28T09:13:09.194Z,73.58
2018-07-28T09:14:09.175Z,73.58
2018-07-28T09:15:09.173Z,74.75
2018-07-28T09:16:09.163Z,73.62
2018-07-28T09:17:09.153Z,71.29
2018-07-28T09:18:09.148Z,70.90
2018-07-28T09:19:09.148Z,72.91
2018-07-28T09:20:09.133Z,71.94
2018-07-28T09:21:09.127Z,72.42
2018-07-28T09:22:09.130Z,73.55
2018-07-28T09:23:09.151Z,75.20
2018-07-28T09:24:09.120Z,74.04
2018-07-28T09:25:09.105Z,75.49
2018-07-28T09:26:09.091Z,76.07
2018-07-28T09:27:09.093Z,75.59
2018-07-28T09:28:09.076Z,76.27
2018-07-28T09:29:09.068Z,76.72
2018-07-28T09:30:09.060Z,75.49
2018-07-28T09:31:09.052Z,75.98
2018-07-28T09:32:09.047Z,75.49
2018-07-28T09:33:09.037Z,75.68
2018-07-28T09:34:09.031Z,74.71
2018-07-28T09:35:09.024Z,75.30
2018-07-28T09:36:09.017Z,76.46
2018-07-28T09:37:09.012Z,76.46
2018-07-28T09:38:09.027Z,76.56
2018-07-28T09:39:08.996Z,75.59
2018-07-28T09:40:08.990Z,76.46
2018-07-28T09:41:08.982Z,76.75
2018-07-28T09:42:08.971Z,75.49
2018-07-28T09:43:08.974Z,75.20
2018-07-28T09:44:08.958Z,75.30
2018-07-28T09:45:08.955Z,72.91
2018-07-28T09:46:08.942Z,72.81
2018-07-28T09:47:08.938Z,73.00
2018-07-28T09:48:08.931Z,73.39
2018-07-28T09:49:08.921Z,72.85
2018-07-28T09:50:08.915Z,72.71
2018-07-28T09:51:08.920Z,73.58
2018-07-28T09:52:08.900Z,74.65
2018-07-28T09:53:08.896Z,74.43
2018-07-28T09:54:08.893Z,75.40
2018-07-28T09:55:08.875Z,74.62
2018-07-28T09:56:08.887Z,74.58
2018-07-28T09:57:08.868Z,74.97
2018-07-28T09:58:08.853Z,75.74
2018-07-28T09:59:08.850Z,76.81
2018-07-28T10:00:08.845Z,76.81
2018-07-28T10:01:08.840Z,77.69
2018-07-28T10:02:08.824Z,76.72
2018-07-28T10:03:08.814Z,76.52
2018-07-28T10:04:08.808Z,76.78
2018-07-28T10:05:08.799Z,77.65
2018-07-28T10:06:08.813Z,78.33
2018-07-28T10:07:08.785Z,78.13
2018-07-28T10:08:08.778Z,79.00
2018-07-28T10:09:08.769Z,79.84
2018-07-28T10:10:08.762Z,80.80
2018-07-28T10:11:08.755Z,81.45
2018-07-28T10:12:08.745Z,82.60
2018-07-28T10:13:08.736Z,83.48
2018-07-28T10:14:08.730Z,84.16
2018-07-28T10:15:08.735Z,84.45
2018-07-28T10:16:08.733Z,84.64
2018-07-28T10:17:08.714Z,84.31
2018-07-28T10:18:08.693Z,85.22
2018-07-28T10:19:08.684Z,84.89
2018-07-28T10:20:08.687Z,85.22
2018-07-28T10:21:08.668Z,85.96
2018-07-28T10:22:08.666Z,86.34
2018-07-28T10:23:08.649Z,87.60
2018-07-28T10:24:08.669Z,87.65
2018-07-28T10:25:08.637Z,88.57
2018-07-28T10:26:08.626Z,88.28
2018-07-28T10:27:08.619Z,89.05
2018-07-28T10:28:08.606Z,90.12
2018-07-28T10:29:08.613Z,91.38
2018-07-28T10:30:08.633Z,91.28
2018-07-28T10:31:08.597Z,90.65
2018-07-28T10:32:08.570Z,92.49
2018-07-28T10:33:08.565Z,93.94
2018-07-28T10:34:08.555Z,91.52
2018-07-28T10:35:08.549Z,91.86
2018-07-28T10:36:08.542Z,94.13
2018-07-28T10:37:08.525Z,92.58
2018-07-28T10:38:08.515Z,92.20
2018-07-28T10:39:08.507Z,91.72
2018-07-28T10:40:08.501Z,92.88
2018-07-28T10:41:08.496Z,92.68
2018-07-28T10:42:08.483Z,93.75
2018-07-28T10:43:08.467Z,93.55
2018-07-28T10:44:08.461Z,91.14
2018-07-28T10:45:08.459Z,91.52
2018-07-28T10:46:08.439Z,91.14
2018-07-28T10:47:08.440Z,93.36
2018-07-28T10:48:08.421Z,92.63
2018-07-28T10:49:08.512Z,93.02
2018-07-28T10:50:08.401Z,91.08
2018-07-28T10:51:08.391Z,91.18
2018-07-28T10:52:08.394Z,92.24
2018-07-28T10:53:08.374Z,91.32
2018-07-28T10:54:08.517Z,90.12
2018-07-28T10:55:08.353Z,90.36
2018-07-28T10:56:08.352Z,90.06
2018-07-28T10:57:08.339Z,90.84
2018-07-28T10:58:08.330Z,90.45
2018-07-28T10:59:08.318Z,89.97
2018-07-28T11:00:08.379Z,89.25
2018-07-28T11:01:08.300Z,91.18
2018-07-28T11:02:08.300Z,90.41
2018-07-28T11:03:08.279Z,91.18
2018-07-28T11:04:08.272Z,91.42
2018-07-28T11:05:08.260Z,90.16
2018-07-28T11:06:08.258Z,90.16
2018-07-28T11:07:08.253Z,91.03
2018-07-28T11:08:08.240Z,92.29
2018-07-28T11:09:08.270Z,90.69
2018-07-28T11:10:08.286Z,90.20
2018-07-28T11:11:08.205Z,89.72
2018-07-28T11:12:08.199Z,88.95
2018-07-28T11:13:08.189Z,87.24
2018-07-28T11:14:08.181Z,88.31
2018-07-28T11:15:08.180Z,87.63
2018-07-28T11:16:08.163Z,87.05
2018-07-28T11:17:08.165Z,86.76
2018-07-28T11:18:08.147Z,87.29
2018-07-28T11:19:08.214Z,86.65
2018-07-28T11:20:08.132Z,85.58
2018-07-28T11:21:08.118Z,85.14
2018-07-28T11:22:08.111Z,84.36
2018-07-28T11:23:08.103Z,83.49
2018-07-28T11:24:08.101Z,81.16
2018-07-28T11:25:08.086Z,80.77
2018-07-28T11:26:08.197Z,79.74
2018-07-28T11:27:08.078Z,78.56
2018-07-28T11:28:08.068Z,78.36
2018-07-28T11:29:08.066Z,75.80
2018-07-28T11:30:08.048Z,75.99
2018-07-28T11:31:08.041Z,76.67
2018-07-28T11:32:08.145Z,76.54
2018-07-28T11:33:08.034Z,75.82
2018-07-28T11:34:08.018Z,76.95
2018-07-28T11:35:08.013Z,77.04
2018-07-28T11:36:08.015Z,77.24
2018-07-28T11:37:07.997Z,77.34
2018-07-28T11:38:07.994Z,77.92
2018-07-28T11:39:07.991Z,77.72
2018-07-28T11:40:07.975Z,76.27
2018-07-28T11:41:07.969Z,76.50
2018-07-28T11:42:07.969Z,73.95
2018-07-28T11:43:07.954Z,72.53
2018-07-28T11:44:07.948Z,73.30
2018-07-28T11:45:07.943Z,72.72
2018-07-28T11:46:07.934Z,73.11
2018-07-28T11:47:07.935Z,73.30
2018-07-28T11:48:07.925Z,73.56
2018-07-28T11:49:07.916Z,74.73
2018-07-28T11:50:07.916Z,73.75
2018-07-28T11:51:07.900Z,73.11
2018-07-28T11:52:07.902Z,73.11
2018-07-28T11:53:07.889Z,72.43
2018-07-28T11:54:07.883Z,71.59
2018-07-28T11:55:07.873Z,69.23
2018-07-28T11:56:07.867Z,68.45
2018-07-28T11:57:07.860Z,67.86
2018-07-28T11:58:07.919Z,67.99
2018-07-28T11:59:07.848Z,68.55
2018-07-28T12:00:07.849Z,67.96
2018-07-28T12:01:07.838Z,68.02
2018-07-28T12:02:07.835Z,68.61
2018-07-28T12:03:07.884Z,67.93
2018-07-28T12:04:07.818Z,67.73
2018-07-28T12:05:07.812Z,67.93
2018-07-28T12:06:07.824Z,67.38
2018-07-28T12:07:07.801Z,67.54
2018-07-28T12:08:07.795Z,67.63
2018-07-28T12:09:07.791Z,67.73
2018-07-28T12:10:07.782Z,68.12
2018-07-28T12:11:07.780Z,67.44
2018-07-28T12:12:07.793Z,66.96
2018-07-28T12:13:07.775Z,66.69
2018-07-28T12:14:07.761Z,65.79
2018-07-28T12:15:07.754Z,66.96
2018-07-28T12:16:07.752Z,67.60
2018-07-28T12:17:07.742Z,67.70
2018-07-28T12:18:07.741Z,68.12
2018-07-28T12:19:07.738Z,68.02
2018-07-28T12:20:07.721Z,67.35
2018-07-28T12:21:07.724Z,67.05
2018-07-28T12:22:07.710Z,66.60
2018-07-28T12:23:07.704Z,64.75
2018-07-28T12:24:07.822Z,65.20
2018-07-28T12:25:07.693Z,66.17
2018-07-28T12:26:07.687Z,66.93
2018-07-28T12:27:07.678Z,67.05
2018-07-28T12:28:07.678Z,65.30
2018-07-28T12:29:07.672Z,65.01
2018-07-28T12:30:07.662Z,64.94
2018-07-28T12:31:07.654Z,64.10
2018-07-28T12:32:07.656Z,63.32
2018-07-28T12:33:07.642Z,63.71
2018-07-28T12:34:07.636Z,64.29
2018-07-28T12:35:07.631Z,64.59
2018-07-28T12:36:07.624Z,64.00
2018-07-28T12:37:07.617Z,64.49
2018-07-28T12:38:07.613Z,64.97
2018-07-28T12:39:07.605Z,64.69
2018-07-28T12:40:07.606Z,63.90
2018-07-28T12:41:07.636Z,63.06
2018-07-28T12:42:07.597Z,62.86
2018-07-28T12:43:07.582Z,62.66
2018-07-28T12:44:07.589Z,62.66
2018-07-28T12:45:07.566Z,63.02
2018-07-28T12:46:07.560Z,62.66
2018-07-28T12:47:07.553Z,62.44
2018-07-28T12:48:07.556Z,62.60
2018-07-28T12:49:07.546Z,62.60
2018-07-28T12:50:07.535Z,62.93
2018-07-28T12:51:07.527Z,63.02
2018-07-28T12:52:07.520Z,62.25
2018-07-28T12:53:07.517Z,62.19
2018-07-28T12:54:07.515Z,62.38